Time;durP1;ratioP1;P1;durP2;ratioP2;P2;SDS_P1;SDS_P2;PMS_P1;PMS_P2;Temp;Humidity;BMP_temperature;BMP_pressure;BME280_temperature;BME280_humidity;BME280_pressure;Samples;Min_cycle;Max_cycle;Signal;HPM_P1;HPM_P2
2023/03/05 00:02:05;;;;;;;23.70;12.40;;;;;;;7.85;80.30;94320.22;5015421;28;20534;-82
2023/03/05 00:04:30;;;;;;;24.97;11.80;;;;;;;8.12;79.93;94372.56;5014880;28;20161;-82
2023/03/05 00:06:55;;;;;;;23.73;13.33;;;;;;;8.08;79.82;94358.25;5014617;28;20608;-82
2023/03/05 00:09:21;;;;;;;21.53;11.63;;;;;;;7.76;79.84;94311.00;5014980;28;20635;-82
2023/03/05 00:11:46;;;;;;;22.83;11.70;;;;;;;8.13;79.90;94363.69;5014485;28;20208;-82
2023/03/05 00:14:12;;;;;;;22.97;11.87;;;;;;;7.78;79.65;94302.94;5014816;28;20612;-82
2023/03/05 00:16:37;;;;;;;24.00;11.73;;;;;;;8.18;80.26;94362.03;5014926;28;20526;-82
2023/03/05 00:19:03;;;;;;;27.33;12.67;;;;;;;8.20;79.59;94359.22;4997261;28;20180;-82
2023/03/05 00:21:35;;;;;;;20.23;11.37;;;;;;;8.17;79.48;94359.63;5014354;28;20620;-82
2023/03/05 00:24:04;;;;;;;22.87;10.83;;;;;;;7.67;79.25;94280.00;5014617;28;20184;-82
2023/03/05 00:26:30;;;;;;;23.33;11.87;;;;;;;7.86;79.35;94298.25;5013034;28;20214;-82
2023/03/05 00:28:56;;;;;;;22.20;12.20;;;;;;;8.01;79.68;94323.41;5014473;28;20184;-82
2023/03/05 00:31:29;;;;;;;25.20;12.38;;;;;;;8.18;79.41;94350.75;5012529;28;20502;-82
2023/03/05 00:33:56;;;;;;;26.30;10.43;;;;;;;8.18;79.28;94350.75;4997061;28;20191;-82
2023/03/05 00:36:23;;;;;;;23.07;10.90;;;;;;;7.86;78.88;94302.69;5013787;28;20187;-82
2023/03/05 00:38:48;;;;;;;18.77;9.87;;;;;;;8.09;79.31;94336.25;5013905;28;20212;-82
2023/03/05 00:41:14;;;;;;;19.77;10.57;;;;;;;8.18;78.72;94342.88;5013880;28;20555;-82
2023/03/05 00:43:39;;;;;;;22.00;11.03;;;;;;;7.85;78.71;94293.22;5013612;28;20176;-82
2023/03/05 00:46:05;;;;;;;22.90;11.90;;;;;;;7.85;78.66;94288.78;5014124;28;20177;-82
2023/03/05 00:48:30;;;;;;;26.63;12.37;;;;;;;8.22;78.26;94330.94;5013581;28;20283;-82
2023/03/05 00:50:55;;;;;;;19.93;10.27;;;;;;;8.18;78.41;94333.19;5014014;28;20679;-82
2023/03/05 00:53:22;;;;;;;24.47;11.53;;;;;;;8.18;77.95;94340.25;5013770;28;20184;-82
2023/03/05 00:55:47;;;;;;;25.35;13.88;;;;;;;8.18;78.04;94327.16;5013463;28;20521;-82
2023/03/05 00:58:13;;;;;;;24.40;12.02;;;;;;;7.88;77.86;94290.97;5013678;28;20517;-82
2023/03/05 01:00:39;;;;;;;24.27;10.77;;;;;;;8.12;77.44;94326.19;5013108;28;20190;-82
2023/03/05 01:03:04;;;;;;;20.43;11.03;;;;;;;8.09;77.64;94323.16;5002292;28;20177;-82
2023/03/05 01:05:30;;;;;;;18.50;10.47;;;;;;;7.95;76.90;94283.09;5002047;28;20173;-82
2023/03/05 01:07:55;;;;;;;22.38;13.30;;;;;;;8.00;77.11;94292.94;5009732;28;20786;-81
2023/03/05 01:10:25;;;;;;;18.37;11.00;;;;;;;8.06;77.03;94305.22;5002312;28;20165;-81
2023/03/05 01:12:51;;;;;;;22.70;13.02;;;;;;;7.84;77.20;94262.78;5001215;28;20470;-81
2023/03/05 01:15:17;;;;;;;23.10;11.43;;;;;;;8.22;76.21;94315.22;4993713;28;20173;-82
2023/03/05 01:17:43;;;;;;;24.73;11.97;;;;;;;7.73;75.59;94240.66;4993825;28;20197;-82
2023/03/05 01:20:09;;;;;;;20.23;10.60;;;;;;;7.87;75.52;94265.00;4994648;28;20247;-81
2023/03/05 01:22:34;;;;;;;18.10;10.57;;;;;;;8.03;76.07;94309.06;5005107;28;20176;-82
2023/03/05 01:25:00;;;;;;;19.33;10.53;;;;;;;8.08;75.99;94308.44;5004700;28;20303;-82
2023/03/05 01:27:25;;;;;;;23.27;12.30;;;;;;;7.86;76.00;94279.94;5001499;28;20799;-82
2023/03/05 01:29:51;;;;;;;22.43;12.40;;;;;;;7.69;75.92;94254.41;4993011;28;20412;-82
2023/03/05 01:32:16;;;;;;;25.58;12.70;;;;;;;7.82;75.79;94272.66;4991905;28;20610;-82
2023/03/05 01:34:41;;;;;;;23.73;13.23;;;;;;;7.98;76.26;94308.88;4992759;28;20431;-82
2023/03/05 01:37:08;;;;;;;24.47;11.23;;;;;;;7.99;76.00;94301.81;4992096;28;20511;-82
2023/03/05 01:39:35;;;;;;;19.88;11.55;;;;;;;7.86;75.47;94272.06;4993198;28;20557;-82
2023/03/05 01:42:01;;;;;;;20.95;12.63;;;;;;;8.06;75.55;94303.41;5000525;28;20784;-81
2023/03/05 01:44:28;;;;;;;18.57;11.13;;;;;;;8.11;75.16;94302.78;5002881;28;20244;-81
2023/03/05 01:46:54;;;;;;;17.53;10.47;;;;;;;7.78;75.04;94238.25;5004541;28;20566;-81
2023/03/05 01:49:24;;;;;;;24.30;12.80;;;;;;;7.94;74.29;94263.97;5003664;28;20418;-81
2023/03/05 01:52:16;;;;;;;17.20;9.73;;;;;;;8.11;74.39;94303.59;5005100;28;20177;-81
2023/03/05 01:54:48;;;;;;;18.70;10.43;;;;;;;8.06;74.72;94298.16;4994466;28;20268;-81
2023/03/05 01:57:17;;;;;;;19.93;9.97;;;;;;;8.09;74.70;94302.19;5011184;28;20585;-81
2023/03/05 01:59:46;;;;;;;18.20;9.70;;;;;;;7.80;75.02;94251.09;5012556;28;20169;-81
2023/03/05 02:02:12;;;;;;;20.37;10.77;;;;;;;8.05;74.96;94298.38;5012556;28;20184;-81
2023/03/05 02:05:06;;;;;;;21.17;11.20;;;;;;;8.04;74.79;94300.22;5011536;28;20642;-81
2023/03/05 02:07:36;;;;;;;23.33;10.93;;;;;;;7.67;74.67;94251.19;5011165;28;20192;-81
2023/03/05 02:10:13;;;;;;;25.37;12.90;;;;;;;8.01;74.93;94303.22;5011820;28;20514;-81
2023/03/05 02:12:38;;;;;;;27.33;13.03;;;;;;;8.01;74.98;94307.66;5012543;28;20196;-81
2023/03/05 02:15:04;;;;;;;23.73;10.50;;;;;;;7.74;74.35;94255.38;5012867;28;20297;-81
2023/03/05 02:17:29;;;;;;;20.13;12.10;;;;;;;7.95;74.80;94314.56;5011641;28;20814;-81
2023/03/05 02:20:04;;;;;;;16.97;9.90;;;;;;;7.97;74.58;94302.84;5012508;28;20168;-81
2023/03/05 02:22:29;;;;;;;22.40;11.57;;;;;;;7.79;74.95;94291.41;5012514;28;20608;-81
2023/03/05 02:24:55;;;;;;;20.93;11.73;;;;;;;7.74;74.79;94292.06;5012203;28;20427;-81
2023/03/05 02:27:33;;;;;;;19.33;10.23;;;;;;;7.84;75.06;94308.13;5012492;28;20181;-81
2023/03/05 02:29:59;;;;;;;20.23;10.27;;;;;;;7.86;75.15;94310.56;5012427;28;20188;-81
2023/03/05 02:32:25;;;;;;;21.00;11.40;;;;;;;7.81;75.05;94302.50;5012384;28;20242;-81
2023/03/05 02:34:50;;;;;;;21.03;9.73;;;;;;;7.74;75.44;94288.63;5012440;28;20184;-81
2023/03/05 02:37:16;;;;;;;24.80;12.87;;;;;;;7.70;76.23;94288.22;5012159;28;20587;-81
2023/03/05 02:39:41;;;;;;;23.55;11.80;;;;;;;7.60;75.93;94273.97;5011995;28;20425;-82
2023/03/05 02:42:06;;;;;;;28.40;11.00;;;;;;;7.54;76.40;94272.97;5012354;28;20879;-81
2023/03/05 02:44:32;;;;;;;23.13;11.33;;;;;;;7.63;76.99;94282.22;5012372;28;20196;-81
2023/03/05 02:46:57;;;;;;;22.20;11.83;;;;;;;7.72;77.23;94301.91;5010897;28;20195;-81
2023/03/05 02:49:23;;;;;;;28.47;13.73;;;;;;;7.84;77.27;94313.38;5011908;28;20419;-81
2023/03/05 02:51:48;;;;;;;23.83;11.63;;;;;;;7.51;77.62;94270.78;5012180;28;20294;-82
2023/03/05 02:54:13;;;;;;;25.30;14.20;;;;;;;7.79;77.62;94310.56;5011870;28;20434;-82
2023/03/05 02:56:39;;;;;;;27.50;12.63;;;;;;;7.81;77.17;94307.75;5012002;28;20220;-81
2023/03/05 02:59:04;;;;;;;26.53;13.30;;;;;;;7.77;77.25;94306.56;5012091;28;20668;-82
2023/03/05 03:01:29;;;;;;;22.50;12.77;;;;;;;7.76;77.29;94321.47;5012399;28;20675;-81
2023/03/05 03:03:55;;;;;;;28.87;14.20;;;;;;;7.67;77.19;94317.47;5011855;28;20415;-82
2023/03/05 03:06:21;;;;;;;23.90;11.60;;;;;;;7.59;77.30;94315.06;5012160;28;20628;-81
2023/03/05 03:08:46;;;;;;;29.10;12.30;;;;;;;7.48;77.38;94305.22;4994918;28;20231;-81
2023/03/05 03:11:12;;;;;;;27.45;13.43;;;;;;;7.51;77.68;94315.31;4995742;28;20936;-81
2023/03/05 03:13:38;;;;;;;26.17;14.00;;;;;;;7.57;76.93;94324.94;5015961;28;20493;-81
2023/03/05 03:16:10;;;;;;;27.93;15.80;;;;;;;7.57;77.86;94327.56;5015256;28;20444;-81
2023/03/05 03:18:36;;;;;;;29.67;13.47;;;;;;;7.63;77.12;94316.25;5016179;28;20561;-81
2023/03/05 03:21:02;;;;;;;25.00;12.67;;;;;;;7.63;77.13;94315.44;5016411;28;20656;-80
2023/03/05 03:23:28;;;;;;;28.23;12.93;;;;;;;7.38;77.14;94279.47;5015928;28;20160;-81
2023/03/05 03:25:53;;;;;;;26.20;13.10;;;;;;;7.35;76.86;94286.94;5016114;28;20199;-81
2023/03/05 03:28:18;;;;;;;29.73;14.87;;;;;;;7.33;76.33;94309.91;5006661;28;21192;-82
2023/03/05 03:30:44;;;;;;;26.45;14.73;;;;;;;7.04;77.37;94269.25;5007056;28;20505;-81
2023/03/05 03:33:09;;;;;;;29.27;14.40;;;;;;;7.07;77.17;94264.44;5007618;28;20188;-81
2023/03/05 03:35:35;;;;;;;31.10;18.37;;;;;;;7.28;76.94;94323.56;5004795;28;20426;-82
2023/03/05 03:38:00;;;;;;;32.77;19.90;;;;;;;7.26;77.47;94306.47;4998939;28;20438;-81
2023/03/05 03:40:26;;;;;;;35.45;21.23;;;;;;;7.04;77.23;94304.06;5006378;28;20422;-81
2023/03/05 03:42:51;;;;;;;31.20;18.77;;;;;;;6.99;77.79;94297.84;5006374;28;20454;-81
2023/03/05 03:45:17;;;;;;;35.87;19.00;;;;;;;6.57;77.81;94225.84;5005822;28;20980;-81
2023/03/05 03:47:43;;;;;;;30.00;15.30;;;;;;;6.97;77.82;94273.69;4998532;28;20169;-81
2023/03/05 03:50:09;;;;;;;34.07;14.70;;;;;;;6.92;77.39;94271.69;5015376;28;20518;-81
2023/03/05 03:52:34;;;;;;;30.17;14.87;;;;;;;7.35;77.47;94328.81;5013797;28;20168;-81
2023/03/05 03:55:00;;;;;;;29.73;14.10;;;;;;;7.39;77.35;94328.19;5015352;28;20933;-81
2023/03/05 03:57:32;;;;;;;30.00;14.63;;;;;;;7.34;77.61;94316.75;5015379;28;20564;-81
2023/03/05 03:59:58;;;;;;;29.55;15.43;;;;;;;7.39;77.52;94324.78;5012794;28;20418;-81
2023/03/05 04:02:23;;;;;;;24.83;13.63;;;;;;;7.22;77.25;94307.88;4997069;28;20176;-81
2023/03/05 04:04:48;;;;;;;29.43;14.47;;;;;;;7.39;76.96;94330.00;5006063;28;20925;-81
2023/03/05 04:07:14;;;;;;;31.77;16.83;;;;;;;7.40;77.01;94321.97;5002012;28;20480;-81
2023/03/05 04:09:39;;;;;;;30.23;16.03;;;;;;;7.26;77.06;94327.44;5008359;28;20434;-82
2023/03/05 04:12:05;;;;;;;30.23;13.93;;;;;;;6.93;77.21;94306.50;5014790;28;20173;-82
2023/03/05 04:14:31;;;;;;;29.33;15.57;;;;;;;7.05;77.99;94324.00;5013856;28;20410;-82
2023/03/05 04:16:56;;;;;;;32.33;16.43;;;;;;;6.81;78.40;94296.66;5005359;28;20469;-81
2023/03/05 04:19:21;;;;;;;29.67;16.87;;;;;;;7.10;77.75;94326.00;5002006;28;20412;-81
2023/03/05 04:21:47;;;;;;;26.37;14.00;;;;;;;6.94;77.79;94293.22;5009591;28;20215;-80
2023/03/05 04:24:12;;;;;;;31.00;17.03;;;;;;;7.16;77.84;94333.88;5003497;28;20766;-81
2023/03/05 04:26:38;;;;;;;30.17;16.00;;;;;;;6.89;77.34;94272.09;5002850;28;20181;-81
2023/03/05 04:29:03;;;;;;;35.83;18.43;;;;;;;7.10;76.88;94318.97;5009797;28;20910;-81
2023/03/05 04:31:28;;;;;;;32.77;18.40;;;;;;;6.79;77.37;94282.16;5004842;28;20418;-81
2023/03/05 04:33:54;;;;;;;30.37;16.47;;;;;;;6.85;77.34;94294.41;5000596;28;20181;-81
2023/03/05 04:36:20;;;;;;;37.47;21.05;;;;;;;6.96;77.63;94329.66;5002692;28;20420;-81
2023/03/05 04:38:45;;;;;;;26.97;14.63;;;;;;;7.00;77.35;94328.25;5014306;28;20187;-81
2023/03/05 04:41:11;;;;;;;33.03;17.97;;;;;;;6.81;77.50;94324.63;5013154;28;20402;-81
2023/03/05 04:43:36;;;;;;;29.90;16.00;;;;;;;6.81;77.35;94303.69;4997392;28;20189;-81
2023/03/05 04:46:02;;;;;;;32.90;16.77;;;;;;;6.89;77.51;94327.03;5005052;28;20418;-81
2023/03/05 04:48:27;;;;;;;27.30;14.10;;;;;;;6.57;77.39;94278.16;5005072;28;20189;-81
2023/03/05 04:50:53;;;;;;;26.37;13.90;;;;;;;6.98;77.38;94325.03;5006202;28;20263;-80
2023/03/05 04:53:18;;;;;;;26.30;14.17;;;;;;;7.05;76.55;94317.97;5014107;28;20227;-81
2023/03/05 04:55:43;;;;;;;31.43;14.47;;;;;;;6.97;76.06;94315.56;5013546;28;20456;-81
2023/03/05 04:58:09;;;;;;;34.20;14.77;;;;;;;7.05;76.78;94324.00;5013726;28;20235;-81
2023/03/05 05:00:34;;;;;;;28.87;14.57;;;;;;;7.01;76.62;94321.97;5005041;28;20180;-81
2023/03/05 05:03:00;;;;;;;28.70;15.63;;;;;;;6.60;76.74;94270.69;5001771;28;20411;-81
2023/03/05 05:05:27;;;;;;;37.47;18.90;;;;;;;6.89;77.15;94318.38;5001121;28;20498;-81
2023/03/05 05:07:55;;;;;;;36.95;16.45;;;;;;;6.78;76.97;94307.50;5001970;28;20494;-81
2023/03/05 05:10:21;;;;;;;34.22;15.68;;;;;;;6.90;77.14;94320.00;5001851;28;20423;-81
2023/03/05 05:12:46;;;;;;;36.23;16.77;;;;;;;6.90;76.23;94310.34;5005599;28;20185;-81
2023/03/05 05:15:12;;;;;;;30.83;15.00;;;;;;;6.95;76.31;94325.41;5005411;28;20558;-81
2023/03/05 05:17:38;;;;;;;34.45;16.67;;;;;;;6.83;76.42;94304.31;5000791;28;20520;-80
2023/03/05 05:20:09;;;;;;;32.58;17.95;;;;;;;6.55;nan;94314.13;5004023;28;20595;-81
2023/03/05 05:22:36;;;;;;;34.17;18.20;;;;;;;6.55;77.33;94316.75;5002128;28;20422;-81
2023/03/05 05:25:02;;;;;;;31.63;16.77;;;;;;;6.30;77.49;94283.34;5004864;28;20814;-81
2023/03/05 05:27:27;;;;;;;36.60;14.40;;;;;;;6.79;76.54;94331.84;5005416;28;20212;-80
2023/03/05 05:29:52;;;;;;;31.13;14.50;;;;;;;6.86;75.95;94335.28;5002817;28;20216;-81
2023/03/05 05:32:21;;;;;;;29.53;14.20;;;;;;;6.96;75.22;94330.44;5003181;28;20600;-81
2023/03/05 05:34:47;;;;;;;40.77;16.20;;;;;;;7.03;75.03;94336.47;5002285;28;20164;-81
2023/03/05 05:37:12;;;;;;;27.97;14.33;;;;;;;7.20;73.94;94313.31;5003598;28;20200;-81
2023/03/05 05:39:38;;;;;;;26.23;12.97;;;;;;;7.45;73.06;94329.19;5009042;28;20187;-81
2023/03/05 05:42:03;;;;;;;26.87;12.97;;;;;;;7.44;71.86;94299.56;5005239;28;20183;-81
2023/03/05 05:44:29;;;;;;;25.63;12.77;;;;;;;7.59;70.93;94330.78;4998745;28;20265;-81
2023/03/05 05:46:54;;;;;;;26.57;12.50;;;;;;;7.22;72.13;94313.94;5001737;28;20199;-81
2023/03/05 05:49:20;;;;;;;28.97;13.57;;;;;;;7.42;71.92;94340.09;5002444;28;20668;-81
2023/03/05 05:51:45;;;;;;;25.17;12.07;;;;;;;7.50;71.73;94345.91;5003280;28;20238;-81
2023/03/05 05:54:14;;;;;;;28.23;13.80;;;;;;;7.26;70.74;94315.16;4996811;28;20684;-80
2023/03/05 05:56:40;;;;;;;25.97;14.37;;;;;;;7.52;71.45;94343.09;5003121;28;20225;-81
2023/03/05 05:59:06;;;;;;;40.77;13.90;;;;;;;7.50;71.50;94326.78;5001886;28;20205;-81
2023/03/05 06:01:33;;;;;;;36.77;16.33;;;;;;;7.87;70.35;94344.38;5007130;28;20172;-81
2023/03/05 06:03:59;;;;;;;30.77;13.67;;;;;;;8.08;69.05;94353.00;5000365;28;20192;-81
2023/03/05 06:06:25;;;;;;;30.10;14.47;;;;;;;8.11;68.54;94358.63;5003528;28;20176;-81
2023/03/05 06:08:51;;;;;;;22.10;10.83;;;;;;;7.72;67.95;94322.06;5011006;28;20176;-82
2023/03/05 06:11:17;;;;;;;27.73;10.93;;;;;;;7.71;68.21;94349.28;5001380;28;20271;-81
2023/03/05 06:13:43;;;;;;;25.93;13.33;;;;;;;7.70;68.87;94356.31;5003537;28;20232;-81
2023/03/05 06:16:13;;;;;;;25.23;10.77;;;;;;;7.32;68.42;94326.59;5003339;28;20672;-80
2023/03/05 06:18:39;;;;;;;28.40;12.77;;;;;;;7.51;69.14;94365.06;5004733;28;20201;-82
2023/03/05 06:21:08;;;;;;;24.77;12.13;;;;;;;7.65;70.17;94364.00;4993938;28;20192;-80
2023/03/05 06:23:34;;;;;;;27.17;13.33;;;;;;;7.52;69.09;94362.19;4993084;28;20162;-82
2023/03/05 06:26:01;;;;;;;25.63;11.23;;;;;;;7.52;68.26;94370.06;4993620;28;20184;-81
2023/03/05 06:28:27;;;;;;;27.37;12.03;;;;;;;7.52;68.63;94372.69;5004038;28;20176;-81
2023/03/05 06:31:08;;;;;;;23.57;12.50;;;;;;;7.61;68.81;94373.28;5003939;28;20165;-82
2023/03/05 06:33:34;;;;;;;25.60;13.20;;;;;;;7.58;68.42;94382.38;5000831;28;20176;-82
2023/03/05 06:36:03;;;;;;;23.97;11.83;;;;;;;7.47;68.82;94350.75;4994544;28;20352;-82
2023/03/05 06:38:29;;;;;;;26.90;13.83;;;;;;;7.82;68.47;94378.28;5003906;28;20777;-81
2023/03/05 06:40:54;;;;;;;31.67;15.43;;;;;;;7.95;68.91;94383.50;5005540;28;20224;-80
2023/03/05 06:43:19;;;;;;;31.33;12.13;;;;;;;7.96;68.01;94369.34;5003116;28;20255;-81
2023/03/05 06:45:45;;;;;;;26.77;13.77;;;;;;;8.00;66.78;94376.81;5001400;28;20180;-81
2023/03/05 06:48:11;;;;;;;23.60;11.87;;;;;;;7.86;67.41;94337.56;5004462;28;20192;-81
2023/03/05 06:50:37;;;;;;;23.70;11.40;;;;;;;7.92;65.94;94341.97;5015716;28;20177;-81
2023/03/05 06:53:04;;;;;;;27.57;14.23;;;;;;;8.26;66.87;94379.34;5007667;28;20192;-81
2023/03/05 06:55:30;;;;;;;22.80;11.83;;;;;;;8.25;65.75;94372.50;5006040;28;20232;-81
2023/03/05 06:57:55;;;;;;;25.37;12.30;;;;;;;8.19;64.27;94347.91;5001310;28;20258;-82
2023/03/05 07:00:21;;;;;;;25.53;12.57;;;;;;;8.59;63.64;94385.25;4999797;28;20634;-82
2023/03/05 07:02:47;;;;;;;24.80;12.53;;;;;;;8.86;64.05;94390.38;4996254;28;20625;-82
2023/03/05 07:05:13;;;;;;;26.77;12.20;;;;;;;9.04;62.99;94386.00;5026132;28;20688;-85
2023/03/05 07:07:38;;;;;;;26.40;12.20;;;;;;;8.92;61.06;94347.50;5035579;28;20194;-82
2023/03/05 07:10:06;;;;;;;27.23;12.27;;;;;;;9.25;61.62;94384.84;5026575;28;20651;-82
2023/03/05 07:12:32;;;;;;;26.73;12.80;;;;;;;9.63;62.08;94403.09;5009577;28;20268;-85
2023/03/05 07:14:58;;;;;;;29.27;13.10;;;;;;;10.00;60.46;94403.16;5006740;28;20696;-80
2023/03/05 07:17:24;;;;;;;29.30;14.13;;;;;;;10.29;59.88;94401.69;5004501;28;20262;-83
2023/03/05 07:19:49;;;;;;;22.53;12.30;;;;;;;10.46;59.85;94389.53;5014005;28;20190;-82
2023/03/05 07:22:15;;;;;;;28.07;13.77;;;;;;;10.71;57.84;94377.06;5007374;28;20180;-83
2023/03/05 07:24:40;;;;;;;27.73;12.97;;;;;;;11.13;57.37;94404.22;5006693;28;20177;-81
2023/03/05 07:27:06;;;;;;;31.77;14.90;;;;;;;11.45;56.41;94407.38;5004376;28;20541;-83
2023/03/05 07:29:31;;;;;;;29.10;14.70;;;;;;;11.44;55.95;94360.16;5008516;28;20180;-81
2023/03/05 07:31:56;;;;;;;27.80;12.67;;;;;;;12.31;55.96;94405.91;5015332;28;20221;-81
2023/03/05 07:34:23;;;;;;;23.57;12.57;;;;;;;12.67;54.08;94404.78;5015231;28;20168;-81
2023/03/05 07:36:52;;;;;;;24.97;12.63;;;;;;;12.79;53.27;94395.00;5015620;28;20164;-81
2023/03/05 07:39:18;;;;;;;26.20;13.30;;;;;;;13.39;53.39;94397.16;5015317;28;20192;-81
2023/03/05 07:41:44;;;;;;;24.50;13.43;;;;;;;13.96;51.69;94393.28;5015495;28;20186;-81
2023/03/05 07:44:10;;;;;;;28.23;13.63;;;;;;;14.38;51.26;94336.38;5015339;28;20157;-81
2023/03/05 07:46:36;;;;;;;22.27;12.80;;;;;;;14.79;47.51;94382.72;5014876;28;20183;-80
2023/03/05 07:49:02;;;;;;;28.60;14.50;;;;;;;15.03;49.10;94363.63;5014919;28;20238;-80
2023/03/05 07:51:27;;;;;;;22.00;12.57;;;;;;;15.55;47.08;94378.97;4999720;28;20217;-81
2023/03/05 07:53:56;;;;;;;25.50;14.10;;;;;;;15.64;46.28;94379.31;4997068;28;20648;-81
2023/03/05 07:56:31;;;;;;;27.03;15.30;;;;;;;15.75;47.14;94383.63;5005492;28;20225;-81
2023/03/05 07:59:01;;;;;;;25.00;12.83;;;;;;;15.83;47.33;94364.56;4996941;28;20282;-80
2023/03/05 08:01:28;;;;;;;35.43;15.13;;;;;;;16.04;46.31;94382.25;5014840;28;20219;-81
2023/03/05 08:03:53;;;;;;;25.33;13.40;;;;;;;15.69;45.79;94382.00;5001905;28;20191;-81
2023/03/05 08:06:19;;;;;;;29.27;14.67;;;;;;;15.07;46.96;94351.47;5013133;28;20179;-80
2023/03/05 08:08:44;;;;;;;26.67;15.40;;;;;;;15.23;49.00;94386.06;5016791;28;20185;-81
2023/03/05 08:11:13;;;;;;;25.53;13.87;;;;;;;15.01;47.38;94389.56;5006423;28;20185;-80
2023/03/05 08:13:39;;;;;;;27.77;13.87;;;;;;;14.85;48.02;94371.91;5000379;28;20203;-81
2023/03/05 08:16:11;;;;;;;33.93;15.40;;;;;;;14.69;49.40;94348.97;5011656;28;20306;-81
2023/03/05 08:18:36;;;;;;;25.93;14.80;;;;;;;14.49;49.08;94332.81;5011904;28;20239;-81
2023/03/05 08:21:02;;;;;;;27.53;14.33;;;;;;;13.88;49.93;94369.06;5014734;28;20215;-80
2023/03/05 08:23:28;;;;;;;25.40;14.97;;;;;;;13.53;51.36;94341.06;5012795;28;20180;-80
2023/03/05 08:25:53;;;;;;;31.30;15.10;;;;;;;13.29;51.34;94373.19;5015053;28;20173;-79
2023/03/05 08:28:19;;;;;;;25.30;13.30;;;;;;;12.62;52.63;94314.91;5014988;28;20182;-82
2023/03/05 08:30:46;;;;;;;27.40;14.73;;;;;;;12.40;53.47;94355.16;5011979;28;20200;-82
2023/03/05 08:33:13;;;;;;;26.77;14.80;;;;;;;11.69;54.57;94310.63;5010070;28;20308;-81
2023/03/05 08:35:38;;;;;;;24.60;12.93;;;;;;;11.68;54.04;94369.66;5005382;28;20660;-81
2023/03/05 08:38:05;;;;;;;28.67;15.63;;;;;;;11.55;56.29;94365.44;5010802;28;20196;-81
2023/03/05 08:40:30;;;;;;;24.63;13.33;;;;;;;11.44;56.79;94337.22;5011311;28;20172;-82
2023/03/05 08:42:57;;;;;;;30.73;15.13;;;;;;;11.48;56.35;94342.88;5012054;28;20250;-82
2023/03/05 08:45:22;;;;;;;29.03;14.53;;;;;;;11.76;56.18;94355.41;5013856;28;20219;-81
2023/03/05 08:47:48;;;;;;;26.67;14.00;;;;;;;11.81;56.22;94347.59;4996412;28;20659;-82
2023/03/05 08:50:14;;;;;;;26.27;14.27;;;;;;;11.86;55.82;94356.41;5013363;28;20169;-83
2023/03/05 08:52:39;;;;;;;30.83;14.17;;;;;;;11.71;55.52;94319.94;4997917;28;20185;-82
2023/03/05 08:55:05;;;;;;;26.73;13.20;;;;;;;11.95;55.51;94346.28;5005333;28;20176;-82
2023/03/05 08:57:30;;;;;;;34.47;16.10;;;;;;;11.65;54.32;94307.69;5005170;28;20197;-81
2023/03/05 08:59:56;;;;;;;27.17;14.13;;;;;;;11.77;54.03;94341.16;5005205;28;20261;-82
2023/03/05 09:02:21;;;;;;;26.27;13.30;;;;;;;11.13;53.96;94287.50;5002813;28;20187;-81
2023/03/05 09:04:48;;;;;;;32.60;14.07;;;;;;;11.24;54.95;94292.00;4994950;28;20180;-82
2023/03/05 09:07:14;;;;;;;25.37;12.47;;;;;;;11.52;53.98;94325.53;5013514;28;20161;-82
2023/03/05 09:09:39;;;;;;;26.77;14.83;;;;;;;11.48;53.94;94321.78;5013079;28;20698;-81
2023/03/05 09:12:05;;;;;;;33.10;15.27;;;;;;;11.80;57.49;94330.16;5013504;28;20219;-79
2023/03/05 09:14:30;;;;;;;24.93;12.60;;;;;;;12.18;54.61;94330.44;5013801;28;20215;-80
2023/03/05 09:16:56;;;;;;;25.40;13.00;;;;;;;12.50;53.82;94314.97;5012694;28;20534;-80
2023/03/05 09:19:22;;;;;;;33.10;13.80;;;;;;;12.68;51.69;94313.97;5005316;28;20193;-79
2023/03/05 09:21:48;;;;;;;26.10;13.60;;;;;;;12.61;51.61;94318.59;5004579;28;20675;-80
2023/03/05 09:24:13;;;;;;;24.97;12.37;;;;;;;12.45;51.59;94314.88;5010252;28;20179;-78
2023/03/05 09:26:40;;;;;;;27.77;14.87;;;;;;;12.09;50.06;94319.44;5010901;28;20194;-78
2023/03/05 09:29:07;;;;;;;21.97;11.83;;;;;;;12.05;51.41;94317.50;5009017;28;20187;-78
2023/03/05 09:31:34;;;;;;;29.93;14.27;;;;;;;12.11;52.47;94307.88;5008633;28;20640;-78
2023/03/05 09:33:59;;;;;;;24.20;13.33;;;;;;;12.15;51.07;94315.06;5002204;28;20619;-79
2023/03/05 09:36:28;;;;;;;22.77;11.53;;;;;;;12.18;52.30;94301.41;5002421;28;20264;-78
2023/03/05 09:38:53;;;;;;;23.33;12.40;;;;;;;12.19;50.17;94313.59;5020110;28;20227;-80
2023/03/05 09:41:37;;;;;;;22.50;12.50;;;;;;;11.95;49.63;94306.72;5013500;28;20262;-78
2023/03/05 09:44:15;;;;;;;27.27;13.00;;;;;;;11.52;50.40;94294.72;5007315;28;20729;-81
2023/03/05 09:47:14;;;;;;;26.27;13.53;;;;;;;11.57;52.22;94301.94;5012647;28;20262;-83
2023/03/05 09:50:04;;;;;;;20.17;12.03;;;;;;;11.56;50.21;94298.50;4981540;28;20200;-79
2023/03/05 09:52:45;;;;;;;22.57;12.20;;;;;;;11.30;49.97;94297.13;5009162;28;20643;-81
2023/03/05 09:55:24;;;;;;;20.50;11.57;;;;;;;10.85;50.23;94254.72;4994276;28;20206;-81
2023/03/05 09:58:24;;;;;;;31.17;15.73;;;;;;;11.23;51.39;94303.56;5008847;28;20296;-79
2023/03/05 10:00:56;;;;;;;25.27;12.63;;;;;;;10.90;50.51;94244.31;4998075;28;20196;-80
2023/03/05 10:03:29;;;;;;;21.27;10.20;;;;;;;11.28;51.35;94285.22;5007415;28;20169;-82
2023/03/05 10:06:18;;;;;;;26.27;12.80;;;;;;;11.03;51.85;94230.13;5010803;28;20180;-82
2023/03/05 10:09:06;;;;;;;25.87;13.47;;;;;;;11.67;51.19;94279.25;5005149;28;20307;-84
2023/03/05 10:11:49;;;;;;;21.40;12.10;;;;;;;11.83;50.22;94277.75;5004065;28;20190;-85
2023/03/05 10:14:40;;;;;;;21.57;11.23;;;;;;;11.90;51.11;94270.53;4994694;28;20652;-82
2023/03/05 10:17:29;;;;;;;23.10;12.30;;;;;;;11.72;50.64;94218.72;5012232;28;20183;-82
2023/03/05 10:20:34;;;;;;;28.97;13.03;;;;;;;11.74;49.85;94273.84;5011402;28;20176;-83
2023/03/05 10:23:23;;;;;;;23.37;12.63;;;;;;;11.53;51.49;94221.72;4994779;28;20553;-82
2023/03/05 10:26:19;;;;;;;26.30;14.30;;;;;;;11.62;50.40;94223.78;5012454;28;20231;-82
2023/03/05 10:28:56;;;;;;;19.63;11.27;;;;;;;12.05;50.18;94254.19;5012593;28;20169;-82
2023/03/05 10:31:33;;;;;;;24.57;11.37;;;;;;;12.21;49.68;94252.63;5012624;28;20616;-83
2023/03/05 10:34:29;;;;;;;20.87;9.90;;;;;;;12.41;49.19;94253.03;5003834;28;20254;-83
2023/03/05 10:37:13;;;;;;;17.87;10.43;;;;;;;12.54;47.61;94241.38;5002486;28;20565;-83
2023/03/05 10:39:53;;;;;;;15.03;9.43;;;;;;;12.64;47.19;94246.81;5008322;28;20195;-83
2023/03/05 10:42:56;;;;;;;22.73;10.97;;;;;;;12.56;47.42;94241.91;5004891;28;20184;-82
2023/03/05 10:45:37;;;;;;;19.20;10.20;;;;;;;12.38;48.16;94209.41;5012112;28;20251;-82
2023/03/05 10:48:18;;;;;;;17.17;9.40;;;;;;;12.24;48.32;94207.31;5012117;28;20204;-83
2023/03/05 10:50:49;;;;;;;18.67;9.93;;;;;;;12.38;48.92;94221.81;5012689;28;20157;-82
2023/03/05 10:53:26;;;;;;;18.90;10.43;;;;;;;12.48;48.98;94214.06;5010838;28;20181;-84
2023/03/05 10:55:55;;;;;;;19.53;10.10;;;;;;;12.54;49.75;94209.69;5009503;28;20220;-83
2023/03/05 10:58:22;;;;;;;19.20;10.67;;;;;;;12.72;48.70;94209.44;4974941;28;20216;-83
2023/03/05 11:01:00;;;;;;;19.70;10.40;;;;;;;12.66;48.57;94213.03;4992452;28;20177;-82
2023/03/05 11:03:45;;;;;;;19.33;10.30;;;;;;;12.38;47.79;94179.56;4994010;28;20191;-82
2023/03/05 11:06:12;;;;;;;18.27;10.37;;;;;;;12.65;49.03;94206.97;5000425;28;20204;-82
2023/03/05 11:08:38;;;;;;;20.33;11.00;;;;;;;12.55;48.70;94196.22;4999104;28;20176;-81
2023/03/05 11:11:14;;;;;;;32.90;10.87;;;;;;;12.39;48.61;94211.00;4999010;28;20635;-83
2023/03/05 11:13:56;;;;;;;22.23;9.07;;;;;;;12.26;48.28;94202.59;5000648;28;20176;-82
2023/03/05 11:16:31;;;;;;;15.87;9.37;;;;;;;12.11;48.65;94197.06;4975039;28;20634;-81
2023/03/05 11:19:18;;;;;;;19.47;10.60;;;;;;;11.90;48.92;94187.97;4991257;28;20215;-82
2023/03/05 11:21:46;;;;;;;20.53;9.53;;;;;;;11.93;49.52;94196.22;4992313;28;20236;-81
2023/03/05 11:24:17;;;;;;;18.57;10.23;;;;;;;11.89;50.36;94184.53;4992697;28;20169;-81
2023/03/05 11:26:51;;;;;;;18.13;9.43;;;;;;;11.86;49.07;94177.06;4992269;28;20645;-87
2023/03/05 11:29:28;;;;;;;16.43;8.93;;;;;;;11.93;49.65;94184.88;4995618;28;20175;-82